Aérodrome :
LOGIN :

S'inscrire | Disclaimer

   EN    FR    IT 

 










Légende :    VFR   VFR Marginal   IFR   IFR Intensif   IFR Très Intensif
Visi : 
Plafond : 
>= 8 km
>= 3000ft
5 à 8 km
1000 à 3000 ft
1500m à 5 km
500 à 1000 ft
800 à 1500m
200 à 500 ft
< 800m
< 200 ft
Symboles :   Orages  Brouillard  Fortes neiges  Fortes précipitations  Vent > 20 kt
SIGMETs :   Divers  Orages  Givrage  Turbulence  Onde Orograph.  Cendres Volcan.






- Altitude de l'aérodrome : 125 ft
- Code IATA : MGL


EDLN - Mönchengladbach

DERNIER METAR :
  • 020720Z VRB02KT CAVOK 04/02 Q1015

METARs EXPIRÉS :
  • 020650Z VRB02KT CAVOK 03/01 Q1015
  • 020620Z VRB02KT CAVOK 02/01 Q1015
  • 020550Z 00000KT CAVOK 01/M00 Q1015
  • 020520Z AUTO VRB01KT 9999 // BKN054/// 00/M01 Q1015
  • 020450Z AUTO 00000KT 9999 // FEW045/// BKN054/// M01/M02 Q1015

TAF TAF EDLN
Valide du 02 à 07h jusqu'au 02 à 15h UTC


020620Z 0207/0215 VRB03KT 9999 FEW040
BECMG 0209/0212 26008KT



MET'MAP, la Météo Aéronautique d'un coup d'oeil ! - Copyright ORBIFLY Décembre 2007 - Disclaimer

ORBIFLY MET'MAP TEAM :

Programmation & Développement : Alexandra Zaïnal
Sur une idée originale de : Baudouin d'Aumeries
Assistance à la programmation : Marc-Olivier Méhu
Soutien technique & logistique : Manuel Goepfert

Contact : metmap@orbifly.com




SOURCES & CREDITS :

   NOAA